sensor_id;sensor_type;location;lat;lon;timestamp;temperature;humidity
21823;DHT22;11074;48.596;9.238;2022-11-14T00:00:37;5.40;99.90
21823;DHT22;11074;48.596;9.238;2022-11-14T00:03:04;5.40;99.90
21823;DHT22;11074;48.596;9.238;2022-11-14T00:05:31;5.40;99.90
21823;DHT22;11074;48.596;9.238;2022-11-14T00:07:57;5.50;99.90
21823;DHT22;11074;48.596;9.238;2022-11-14T00:10:23;5.50;99.90
21823;DHT22;11074;48.596;9.238;2022-11-14T00:12:49;5.50;99.90
21823;DHT22;11074;48.596;9.238;2022-11-14T00:15:15;5.50;99.90
21823;DHT22;11074;48.596;9.238;2022-11-14T00:17:41;5.50;99.90
21823;DHT22;11074;48.596;9.238;2022-11-14T00:20:09;5.50;99.90
21823;DHT22;11074;48.596;9.238;2022-11-14T00:22:36;5.50;99.90
21823;DHT22;11074;48.596;9.238;2022-11-14T00:25:02;5.50;99.90
21823;DHT22;11074;48.596;9.238;2022-11-14T00:27:28;5.50;99.90
21823;DHT22;11074;48.596;9.238;2022-11-14T00:29:53;5.50;99.90
21823;DHT22;11074;48.596;9.238;2022-11-14T00:32:19;5.50;99.90
21823;DHT22;11074;48.596;9.238;2022-11-14T00:34:47;5.30;99.90
21823;DHT22;11074;48.596;9.238;2022-11-14T00:37:13;5.10;99.90
21823;DHT22;11074;48.596;9.238;2022-11-14T00:39:39;5.10;99.90
21823;DHT22;11074;48.596;9.238;2022-11-14T00:42:05;5.10;99.90
21823;DHT22;11074;48.596;9.238;2022-11-14T00:44:31;5.00;99.90
21823;DHT22;11074;48.596;9.238;2022-11-14T00:46:56;4.90;99.90
21823;DHT22;11074;48.596;9.238;2022-11-14T00:49:22;4.90;99.90
21823;DHT22;11074;48.596;9.238;2022-11-14T00:51:48;5.00;99.90
21823;DHT22;11074;48.596;9.238;2022-11-14T00:54:14;5.10;99.90
21823;DHT22;11074;48.596;9.238;2022-11-14T00:56:39;5.00;99.90
21823;DHT22;11074;48.596;9.238;2022-11-14T00:59:05;5.00;99.90
21823;DHT22;11074;48.596;9.238;2022-11-14T01:01:31;5.00;99.90
21823;DHT22;11074;48.596;9.238;2022-11-14T01:03:56;5.00;99.90
21823;DHT22;11074;48.596;9.238;2022-11-14T01:06:22;5.00;99.90
21823;DHT22;11074;48.596;9.238;2022-11-14T01:08:49;5.00;99.90
21823;DHT22;11074;48.596;9.238;2022-11-14T01:11:17;5.00;99.90
21823;DHT22;11074;48.596;9.238;2022-11-14T01:13:44;5.00;99.90
21823;DHT22;11074;48.596;9.238;2022-11-14T01:16:11;4.90;99.90
21823;DHT22;11074;48.596;9.238;2022-11-14T01:18:37;4.90;99.90
21823;DHT22;11074;48.596;9.238;2022-11-14T01:21:11;4.90;99.90
21823;DHT22;11074;48.596;9.238;2022-11-14T01:23:37;4.90;99.90
21823;DHT22;11074;48.596;9.238;2022-11-14T01:26:08;4.90;99.90
21823;DHT22;11074;48.596;9.238;2022-11-14T01:28:37;4.80;99.90
21823;DHT22;11074;48.596;9.238;2022-11-14T01:31:12;4.80;99.90
21823;DHT22;11074;48.596;9.238;2022-11-14T01:33:40;4.80;99.90
21823;DHT22;11074;48.596;9.238;2022-11-14T01:36:07;4.80;99.90
21823;DHT22;11074;48.596;9.238;2022-11-14T01:38:34;4.80;99.90
21823;DHT22;11074;48.596;9.238;2022-11-14T01:41:00;4.80;99.90
21823;DHT22;11074;48.596;9.238;2022-11-14T01:43:35;4.70;99.90
21823;DHT22;11074;48.596;9.238;2022-11-14T01:51:19;4.80;99.90
21823;DHT22;11074;48.596;9.238;2022-11-14T01:53:57;4.70;99.90
21823;DHT22;11074;48.596;9.238;2022-11-14T01:56:30;4.70;99.90
21823;DHT22;11074;48.596;9.238;2022-11-14T01:59:08;4.70;99.90
21823;DHT22;11074;48.596;9.238;2022-11-14T02:01:40;4.70;99.90
21823;DHT22;11074;48.596;9.238;2022-11-14T02:04:11;4.60;99.90
21823;DHT22;11074;48.596;9.238;2022-11-14T02:06:41;4.70;99.90
21823;DHT22;11074;48.596;9.238;2022-11-14T02:09:08;4.60;99.90
21823;DHT22;11074;48.596;9.238;2022-11-14T02:11:39;4.60;99.90
21823;DHT22;11074;48.596;9.238;2022-11-14T02:14:07;4.70;99.90
21823;DHT22;11074;48.596;9.238;2022-11-14T02:16:34;4.70;99.90
21823;DHT22;11074;48.596;9.238;2022-11-14T02:18:59;4.60;99.90
21823;DHT22;11074;48.596;9.238;2022-11-14T02:21:25;4.60;99.90
21823;DHT22;11074;48.596;9.238;2022-11-14T02:23:51;4.60;99.90
21823;DHT22;11074;48.596;9.238;2022-11-14T02:26:18;4.50;99.90
21823;DHT22;11074;48.596;9.238;2022-11-14T02:28:45;4.50;99.90
21823;DHT22;11074;48.596;9.238;2022-11-14T02:31:11;4.50;99.90
21823;DHT22;11074;48.596;9.238;2022-11-14T02:33:37;4.50;99.90
21823;DHT22;11074;48.596;9.238;2022-11-14T02:36:03;4.50;99.90
21823;DHT22;11074;48.596;9.238;2022-11-14T02:38:29;4.50;99.90
21823;DHT22;11074;48.596;9.238;2022-11-14T02:40:55;4.50;99.90
21823;DHT22;11074;48.596;9.238;2022-11-14T02:43:23;4.50;99.90
21823;DHT22;11074;48.596;9.238;2022-11-14T02:45:48;4.50;99.90
21823;DHT22;11074;48.596;9.238;2022-11-14T02:48:14;4.40;99.90
21823;DHT22;11074;48.596;9.238;2022-11-14T02:50:40;4.40;99.90
21823;DHT22;11074;48.596;9.238;2022-11-14T02:53:07;4.50;99.90
21823;DHT22;11074;48.596;9.238;2022-11-14T02:55:32;4.50;99.90
21823;DHT22;11074;48.596;9.238;2022-11-14T02:57:58;4.50;99.90
21823;DHT22;11074;48.596;9.238;2022-11-14T03:00:24;4.50;99.90
21823;DHT22;11074;48.596;9.238;2022-11-14T03:02:52;4.50;99.90
21823;DHT22;11074;48.596;9.238;2022-11-14T03:05:18;4.50;99.90
21823;DHT22;11074;48.596;9.238;2022-11-14T03:07:44;4.30;99.90
21823;DHT22;11074;48.596;9.238;2022-11-14T03:10:10;4.30;99.90
21823;DHT22;11074;48.596;9.238;2022-11-14T03:12:36;4.30;99.90
21823;DHT22;11074;48.596;9.238;2022-11-14T03:15:04;4.40;99.90
21823;DHT22;11074;48.596;9.238;2022-11-14T03:17:32;4.40;99.90
21823;DHT22;11074;48.596;9.238;2022-11-14T03:19:58;4.40;99.90
21823;DHT22;11074;48.596;9.238;2022-11-14T03:22:25;4.40;99.90
21823;DHT22;11074;48.596;9.238;2022-11-14T03:24:51;4.40;99.90
21823;DHT22;11074;48.596;9.238;2022-11-14T03:27:17;4.40;99.90
21823;DHT22;11074;48.596;9.238;2022-11-14T03:29:43;4.40;99.90
21823;DHT22;11074;48.596;9.238;2022-11-14T03:32:09;4.40;99.90
21823;DHT22;11074;48.596;9.238;2022-11-14T03:34:35;4.30;99.90
21823;DHT22;11074;48.596;9.238;2022-11-14T03:37:00;4.40;99.90
21823;DHT22;11074;48.596;9.238;2022-11-14T03:39:26;4.40;99.90
21823;DHT22;11074;48.596;9.238;2022-11-14T03:41:52;4.40;99.90
21823;DHT22;11074;48.596;9.238;2022-11-14T03:44:18;4.40;99.90
21823;DHT22;11074;48.596;9.238;2022-11-14T03:46:43;4.40;99.90
21823;DHT22;11074;48.596;9.238;2022-11-14T03:49:09;4.40;99.90
21823;DHT22;11074;48.596;9.238;2022-11-14T03:51:35;4.40;99.90
21823;DHT22;11074;48.596;9.238;2022-11-14T03:54:01;4.40;99.90
21823;DHT22;11074;48.596;9.238;2022-11-14T03:56:26;4.40;99.90
21823;DHT22;11074;48.596;9.238;2022-11-14T03:58:52;4.40;99.90
21823;DHT22;11074;48.596;9.238;2022-11-14T04:01:18;4.30;99.90
21823;DHT22;11074;48.596;9.238;2022-11-14T04:03:43;4.30;99.90
21823;DHT22;11074;48.596;9.238;2022-11-14T04:06:09;4.30;99.90
21823;DHT22;11074;48.596;9.238;2022-11-14T04:08:35;4.20;99.90
21823;DHT22;11074;48.596;9.238;2022-11-14T04:11:00;4.20;99.90
21823;DHT22;11074;48.596;9.238;2022-11-14T04:13:26;4.20;99.90
21823;DHT22;11074;48.596;9.238;2022-11-14T04:15:57;4.20;99.90
21823;DHT22;11074;48.596;9.238;2022-11-14T04:18:24;4.20;99.90
21823;DHT22;11074;48.596;9.238;2022-11-14T04:20:51;4.10;99.90
21823;DHT22;11074;48.596;9.238;2022-11-14T04:23:17;4.00;99.90
21823;DHT22;11074;48.596;9.238;2022-11-14T04:25:43;3.90;99.90
21823;DHT22;11074;48.596;9.238;2022-11-14T04:28:10;4.00;99.90
21823;DHT22;11074;48.596;9.238;2022-11-14T04:30:36;4.10;99.90
21823;DHT22;11074;48.596;9.238;2022-11-14T04:33:01;4.10;99.90
21823;DHT22;11074;48.596;9.238;2022-11-14T04:35:27;4.20;99.90
21823;DHT22;11074;48.596;9.238;2022-11-14T04:37:52;4.10;99.90
21823;DHT22;11074;48.596;9.238;2022-11-14T04:40:18;4.10;99.90
21823;DHT22;11074;48.596;9.238;2022-11-14T04:42:44;4.10;99.90
21823;DHT22;11074;48.596;9.238;2022-11-14T04:45:09;4.10;99.90
21823;DHT22;11074;48.596;9.238;2022-11-14T04:47:35;4.00;99.90
21823;DHT22;11074;48.596;9.238;2022-11-14T04:50:02;4.00;99.90
21823;DHT22;11074;48.596;9.238;2022-11-14T04:52:28;4.10;99.90
21823;DHT22;11074;48.596;9.238;2022-11-14T04:54:54;4.10;99.90
21823;DHT22;11074;48.596;9.238;2022-11-14T04:57:20;4.20;99.90
21823;DHT22;11074;48.596;9.238;2022-11-14T04:59:45;4.20;99.90
21823;DHT22;11074;48.596;9.238;2022-11-14T05:02:11;4.20;99.90
21823;DHT22;11074;48.596;9.238;2022-11-14T05:04:37;4.20;99.90
21823;DHT22;11074;48.596;9.238;2022-11-14T05:07:02;4.10;99.90
21823;DHT22;11074;48.596;9.238;2022-11-14T05:09:29;4.10;99.90
21823;DHT22;11074;48.596;9.238;2022-11-14T05:11:54;4.00;99.90
21823;DHT22;11074;48.596;9.238;2022-11-14T05:14:20;4.00;99.90
21823;DHT22;11074;48.596;9.238;2022-11-14T05:16:46;3.90;99.90
21823;DHT22;11074;48.596;9.238;2022-11-14T05:19:12;3.90;99.90
21823;DHT22;11074;48.596;9.238;2022-11-14T05:21:37;4.00;99.90
21823;DHT22;11074;48.596;9.238;2022-11-14T05:24:03;4.00;99.90
21823;DHT22;11074;48.596;9.238;2022-11-14T05:26:29;4.10;99.90
21823;DHT22;11074;48.596;9.238;2022-11-14T05:28:55;4.10;99.90
21823;DHT22;11074;48.596;9.238;2022-11-14T05:31:20;4.10;99.90
21823;DHT22;11074;48.596;9.238;2022-11-14T05:33:46;4.10;99.90
21823;DHT22;11074;48.596;9.238;2022-11-14T05:36:14;4.10;99.90
21823;DHT22;11074;48.596;9.238;2022-11-14T05:38:41;4.20;99.90
21823;DHT22;11074;48.596;9.238;2022-11-14T05:41:09;4.20;99.90
21823;DHT22;11074;48.596;9.238;2022-11-14T05:43:40;4.10;99.90
21823;DHT22;11074;48.596;9.238;2022-11-14T05:46:09;4.10;99.90
21823;DHT22;11074;48.596;9.238;2022-11-14T05:48:37;4.10;99.90
21823;DHT22;11074;48.596;9.238;2022-11-14T05:51:05;4.10;99.90
21823;DHT22;11074;48.596;9.238;2022-11-14T05:53:33;4.10;99.90
21823;DHT22;11074;48.596;9.238;2022-11-14T05:56:00;4.20;99.90
21823;DHT22;11074;48.596;9.238;2022-11-14T05:58:27;4.20;99.90
21823;DHT22;11074;48.596;9.238;2022-11-14T06:01:01;4.20;99.90
21823;DHT22;11074;48.596;9.238;2022-11-14T06:03:33;4.20;99.90
21823;DHT22;11074;48.596;9.238;2022-11-14T06:06:05;4.20;99.90
21823;DHT22;11074;48.596;9.238;2022-11-14T06:08:33;4.20;99.90
21823;DHT22;11074;48.596;9.238;2022-11-14T06:11:19;4.10;99.90
21823;DHT22;11074;48.596;9.238;2022-11-14T06:13:46;4.20;99.90
21823;DHT22;11074;48.596;9.238;2022-11-14T06:16:14;4.10;99.90
21823;DHT22;11074;48.596;9.238;2022-11-14T06:18:41;4.10;99.90
21823;DHT22;11074;48.596;9.238;2022-11-14T06:21:15;4.10;99.90
21823;DHT22;11074;48.596;9.238;2022-11-14T06:23:43;4.10;99.90
21823;DHT22;11074;48.596;9.238;2022-11-14T06:26:24;4.10;99.90
21823;DHT22;11074;48.596;9.238;2022-11-14T06:28:52;4.20;99.90
21823;DHT22;11074;48.596;9.238;2022-11-14T06:31:19;4.20;99.90
21823;DHT22;11074;48.596;9.238;2022-11-14T06:33:45;4.20;99.90
21823;DHT22;11074;48.596;9.238;2022-11-14T06:36:12;4.20;99.90
21823;DHT22;11074;48.596;9.238;2022-11-14T06:38:39;4.20;99.90
21823;DHT22;11074;48.596;9.238;2022-11-14T06:43:45;4.30;99.90
21823;DHT22;11074;48.596;9.238;2022-11-14T06:46:16;4.30;99.90
21823;DHT22;11074;48.596;9.238;2022-11-14T06:48:44;4.30;99.90
21823;DHT22;11074;48.596;9.238;2022-11-14T06:51:12;4.30;99.90
21823;DHT22;11074;48.596;9.238;2022-11-14T06:53:39;4.40;99.90
21823;DHT22;11074;48.596;9.238;2022-11-14T06:56:10;4.30;99.90
21823;DHT22;11074;48.596;9.238;2022-11-14T06:58:41;4.30;99.90
21823;DHT22;11074;48.596;9.238;2022-11-14T07:01:14;4.30;99.90
21823;DHT22;11074;48.596;9.238;2022-11-14T07:03:40;4.30;99.90
21823;DHT22;11074;48.596;9.238;2022-11-14T07:06:09;4.40;99.90
21823;DHT22;11074;48.596;9.238;2022-11-14T07:08:37;4.40;99.90
21823;DHT22;11074;48.596;9.238;2022-11-14T07:11:08;4.40;99.90
21823;DHT22;11074;48.596;9.238;2022-11-14T07:13:36;4.40;99.90
21823;DHT22;11074;48.596;9.238;2022-11-14T07:16:03;4.40;99.90
21823;DHT22;11074;48.596;9.238;2022-11-14T07:18:30;4.40;99.90
21823;DHT22;11074;48.596;9.238;2022-11-14T07:21:04;4.50;99.90
21823;DHT22;11074;48.596;9.238;2022-11-14T07:23:32;4.50;99.90
21823;DHT22;11074;48.596;9.238;2022-11-14T07:26:03;4.50;99.90
21823;DHT22;11074;48.596;9.238;2022-11-14T07:28:31;4.50;99.90
21823;DHT22;11074;48.596;9.238;2022-11-14T07:30:58;4.60;99.90
21823;DHT22;11074;48.596;9.238;2022-11-14T07:33:26;4.60;99.90
21823;DHT22;11074;48.596;9.238;2022-11-14T07:35:53;4.60;99.90
21823;DHT22;11074;48.596;9.238;2022-11-14T07:38:19;4.60;99.90
21823;DHT22;11074;48.596;9.238;2022-11-14T07:40:56;4.60;99.90
21823;DHT22;11074;48.596;9.238;2022-11-14T07:43:27;4.60;99.90
21823;DHT22;11074;48.596;9.238;2022-11-14T07:45:53;4.60;99.90
21823;DHT22;11074;48.596;9.238;2022-11-14T07:48:23;4.60;99.90
21823;DHT22;11074;48.596;9.238;2022-11-14T07:50:49;4.60;99.90
21823;DHT22;11074;48.596;9.238;2022-11-14T07:53:14;4.60;99.90
21823;DHT22;11074;48.596;9.238;2022-11-14T07:55:42;4.60;99.90
21823;DHT22;11074;48.596;9.238;2022-11-14T07:58:08;4.50;99.90
21823;DHT22;11074;48.596;9.238;2022-11-14T08:00:34;4.50;99.90
21823;DHT22;11074;48.596;9.238;2022-11-14T08:03:00;4.50;99.90
21823;DHT22;11074;48.596;9.238;2022-11-14T08:05:26;4.40;99.90
21823;DHT22;11074;48.596;9.238;2022-11-14T08:07:52;4.50;99.90
21823;DHT22;11074;48.596;9.238;2022-11-14T08:10:18;4.50;99.90
21823;DHT22;11074;48.596;9.238;2022-11-14T08:12:44;4.50;99.90
21823;DHT22;11074;48.596;9.238;2022-11-14T08:15:12;4.50;99.90
21823;DHT22;11074;48.596;9.238;2022-11-14T08:17:38;4.50;99.90
21823;DHT22;11074;48.596;9.238;2022-11-14T08:20:06;4.50;99.90
21823;DHT22;11074;48.596;9.238;2022-11-14T08:22:33;4.60;99.90
21823;DHT22;11074;48.596;9.238;2022-11-14T08:24:58;4.50;99.90
21823;DHT22;11074;48.596;9.238;2022-11-14T08:27:24;4.60;99.90
21823;DHT22;11074;48.596;9.238;2022-11-14T08:29:50;4.60;99.90
21823;DHT22;11074;48.596;9.238;2022-11-14T08:32:17;4.60;99.90
21823;DHT22;11074;48.596;9.238;2022-11-14T08:34:43;4.60;99.90
21823;DHT22;11074;48.596;9.238;2022-11-14T08:37:09;4.60;99.90
21823;DHT22;11074;48.596;9.238;2022-11-14T08:39:35;4.60;99.90
21823;DHT22;11074;48.596;9.238;2022-11-14T08:42:01;4.70;99.90
21823;DHT22;11074;48.596;9.238;2022-11-14T08:44:26;4.70;99.90
21823;DHT22;11074;48.596;9.238;2022-11-14T08:46:52;4.80;99.90
21823;DHT22;11074;48.596;9.238;2022-11-14T08:49:18;4.80;99.90
21823;DHT22;11074;48.596;9.238;2022-11-14T08:51:43;4.80;99.90
21823;DHT22;11074;48.596;9.238;2022-11-14T08:54:09;4.80;99.90
21823;DHT22;11074;48.596;9.238;2022-11-14T08:56:35;4.80;99.90
21823;DHT22;11074;48.596;9.238;2022-11-14T08:59:04;4.90;99.90
21823;DHT22;11074;48.596;9.238;2022-11-14T09:01:30;4.90;99.90
21823;DHT22;11074;48.596;9.238;2022-11-14T09:03:57;4.90;99.90
21823;DHT22;11074;48.596;9.238;2022-11-14T09:06:24;4.90;99.90
21823;DHT22;11074;48.596;9.238;2022-11-14T09:08:49;5.00;99.90
21823;DHT22;11074;48.596;9.238;2022-11-14T09:11:15;5.00;99.90
21823;DHT22;11074;48.596;9.238;2022-11-14T09:13:40;5.00;99.90
21823;DHT22;11074;48.596;9.238;2022-11-14T09:16:06;5.10;99.90
21823;DHT22;11074;48.596;9.238;2022-11-14T09:18:33;5.10;99.90
21823;DHT22;11074;48.596;9.238;2022-11-14T09:21:03;5.10;99.90
21823;DHT22;11074;48.596;9.238;2022-11-14T09:23:30;5.10;99.90
21823;DHT22;11074;48.596;9.238;2022-11-14T09:25:56;5.20;99.90
21823;DHT22;11074;48.596;9.238;2022-11-14T09:28:23;5.20;99.90
21823;DHT22;11074;48.596;9.238;2022-11-14T09:30:49;5.20;99.90
21823;DHT22;11074;48.596;9.238;2022-11-14T09:33:15;5.20;99.90
21823;DHT22;11074;48.596;9.238;2022-11-14T09:35:40;5.20;99.90
21823;DHT22;11074;48.596;9.238;2022-11-14T09:38:08;5.20;99.90
21823;DHT22;11074;48.596;9.238;2022-11-14T09:44:10;5.20;99.90
21823;DHT22;11074;48.596;9.238;2022-11-14T09:46:58;5.30;99.90
21823;DHT22;11074;48.596;9.238;2022-11-14T09:49:35;5.30;99.90
21823;DHT22;11074;48.596;9.238;2022-11-14T09:52:28;5.30;99.90
21823;DHT22;11074;48.596;9.238;2022-11-14T09:57:40;5.40;99.90
21823;DHT22;11074;48.596;9.238;2022-11-14T10:00:19;5.40;99.90
21823;DHT22;11074;48.596;9.238;2022-11-14T10:09:29;5.60;99.90
21823;DHT22;11074;48.596;9.238;2022-11-14T10:12:22;5.60;99.90
21823;DHT22;11074;48.596;9.238;2022-11-14T10:18:32;5.70;99.90
21823;DHT22;11074;48.596;9.238;2022-11-14T10:26:30;5.80;99.90
21823;DHT22;11074;48.596;9.238;2022-11-14T10:32:30;5.80;99.90
21823;DHT22;11074;48.596;9.238;2022-11-14T10:35:17;5.80;99.90
21823;DHT22;11074;48.596;9.238;2022-11-14T10:40:25;5.90;99.90
21823;DHT22;11074;48.596;9.238;2022-11-14T10:43:23;6.00;99.90
21823;DHT22;11074;48.596;9.238;2022-11-14T10:46:18;6.00;99.90
21823;DHT22;11074;48.596;9.238;2022-11-14T10:48:49;6.10;99.90
21823;DHT22;11074;48.596;9.238;2022-11-14T10:51:35;6.10;99.90
21823;DHT22;11074;48.596;9.238;2022-11-14T10:54:24;6.20;99.90
21823;DHT22;11074;48.596;9.238;2022-11-14T10:57:20;6.20;99.90
21823;DHT22;11074;48.596;9.238;2022-11-14T10:59:47;6.30;99.90
21823;DHT22;11074;48.596;9.238;2022-11-14T11:02:13;6.50;99.90
21823;DHT22;11074;48.596;9.238;2022-11-14T11:04:41;6.60;99.90
21823;DHT22;11074;48.596;9.238;2022-11-14T11:09:39;6.70;99.90
21823;DHT22;11074;48.596;9.238;2022-11-14T11:15:23;6.90;99.90
21823;DHT22;11074;48.596;9.238;2022-11-14T11:20:39;7.20;99.90
21823;DHT22;11074;48.596;9.238;2022-11-14T11:25:35;7.50;99.90
21823;DHT22;11074;48.596;9.238;2022-11-14T11:28:21;7.60;99.90
21823;DHT22;11074;48.596;9.238;2022-11-14T11:31:04;7.70;99.90
21823;DHT22;11074;48.596;9.238;2022-11-14T11:33:36;7.80;99.90
21823;DHT22;11074;48.596;9.238;2022-11-14T11:36:06;7.80;99.90
21823;DHT22;11074;48.596;9.238;2022-11-14T11:38:38;8.00;99.90
21823;DHT22;11074;48.596;9.238;2022-11-14T11:41:31;8.10;99.90
21823;DHT22;11074;48.596;9.238;2022-11-14T11:44:09;8.20;99.90
21823;DHT22;11074;48.596;9.238;2022-11-14T11:46:56;8.30;99.90
21823;DHT22;11074;48.596;9.238;2022-11-14T11:49:47;8.40;99.90
21823;DHT22;11074;48.596;9.238;2022-11-14T11:52:36;8.50;99.90
21823;DHT22;11074;48.596;9.238;2022-11-14T11:58:00;8.60;99.90
21823;DHT22;11074;48.596;9.238;2022-11-14T12:00:30;8.70;99.90
21823;DHT22;11074;48.596;9.238;2022-11-14T12:02:57;8.80;99.90
21823;DHT22;11074;48.596;9.238;2022-11-14T12:08:41;8.90;99.90
21823;DHT22;11074;48.596;9.238;2022-11-14T12:11:31;9.00;99.90
21823;DHT22;11074;48.596;9.238;2022-11-14T12:23:09;9.40;99.90
21823;DHT22;11074;48.596;9.238;2022-11-14T12:32:01;10.40;99.90
21823;DHT22;11074;48.596;9.238;2022-11-14T12:34:33;10.80;99.90
21823;DHT22;11074;48.596;9.238;2022-11-14T12:37:21;11.00;99.90
21823;DHT22;11074;48.596;9.238;2022-11-14T12:40:12;11.10;99.90
21823;DHT22;11074;48.596;9.238;2022-11-14T12:42:47;11.20;99.90
21823;DHT22;11074;48.596;9.238;2022-11-14T12:48:27;11.40;99.90
21823;DHT22;11074;48.596;9.238;2022-11-14T12:50:56;11.60;99.90
21823;DHT22;11074;48.596;9.238;2022-11-14T12:59:17;11.50;99.90
21823;DHT22;11074;48.596;9.238;2022-11-14T13:07:38;11.40;99.90
21823;DHT22;11074;48.596;9.238;2022-11-14T13:10:39;11.60;99.90
21823;DHT22;11074;48.596;9.238;2022-11-14T13:13:10;11.90;99.90
21823;DHT22;11074;48.596;9.238;2022-11-14T13:15:57;12.10;99.90
21823;DHT22;11074;48.596;9.238;2022-11-14T13:27:32;12.90;99.90
21823;DHT22;11074;48.596;9.238;2022-11-14T13:30:00;13.00;99.90
21823;DHT22;11074;48.596;9.238;2022-11-14T13:35:22;13.60;99.90
21823;DHT22;11074;48.596;9.238;2022-11-14T13:47:07;14.80;99.90
21823;DHT22;11074;48.596;9.238;2022-11-14T13:52:49;14.10;99.90
21823;DHT22;11074;48.596;9.238;2022-11-14T13:55:22;14.30;99.90
21823;DHT22;11074;48.596;9.238;2022-11-14T14:07:56;15.10;99.90
21823;DHT22;11074;48.596;9.238;2022-11-14T14:16:44;14.80;99.90
21823;DHT22;11074;48.596;9.238;2022-11-14T14:22:24;13.50;99.90
21823;DHT22;11074;48.596;9.238;2022-11-14T14:25:12;13.20;99.90
21823;DHT22;11074;48.596;9.238;2022-11-14T14:30:33;12.60;99.90
21823;DHT22;11074;48.596;9.238;2022-11-14T14:33:13;12.40;99.90
21823;DHT22;11074;48.596;9.238;2022-11-14T14:35:48;12.40;99.90
21823;DHT22;11074;48.596;9.238;2022-11-14T14:38:26;12.40;99.90
21823;DHT22;11074;48.596;9.238;2022-11-14T14:40:54;12.40;99.90
21823;DHT22;11074;48.596;9.238;2022-11-14T14:43:30;12.30;99.90
21823;DHT22;11074;48.596;9.238;2022-11-14T14:45:58;12.10;99.90
21823;DHT22;11074;48.596;9.238;2022-11-14T14:48:26;12.00;99.90
21823;DHT22;11074;48.596;9.238;2022-11-14T14:50:56;11.80;99.90
21823;DHT22;11074;48.596;9.238;2022-11-14T14:55:56;11.70;99.90
21823;DHT22;11074;48.596;9.238;2022-11-14T14:58:26;11.60;99.90
21823;DHT22;11074;48.596;9.238;2022-11-14T15:00:58;11.50;99.90
21823;DHT22;11074;48.596;9.238;2022-11-14T15:03:35;11.40;99.90
21823;DHT22;11074;48.596;9.238;2022-11-14T15:06:06;11.30;99.90
21823;DHT22;11074;48.596;9.238;2022-11-14T15:09:17;11.30;99.90
21823;DHT22;11074;48.596;9.238;2022-11-14T15:11:50;11.20;99.90
21823;DHT22;11074;48.596;9.238;2022-11-14T15:14:28;11.20;99.90
21823;DHT22;11074;48.596;9.238;2022-11-14T15:16:58;11.20;99.90
21823;DHT22;11074;48.596;9.238;2022-11-14T15:19:33;11.20;99.90
21823;DHT22;11074;48.596;9.238;2022-11-14T15:25:04;11.10;99.90
21823;DHT22;11074;48.596;9.238;2022-11-14T15:27:49;11.10;99.90
21823;DHT22;11074;48.596;9.238;2022-11-14T15:30:26;11.00;99.90
21823;DHT22;11074;48.596;9.238;2022-11-14T15:33:00;10.90;99.90
21823;DHT22;11074;48.596;9.238;2022-11-14T15:35:35;10.80;99.90
21823;DHT22;11074;48.596;9.238;2022-11-14T15:40:32;10.80;99.90
21823;DHT22;11074;48.596;9.238;2022-11-14T15:43:00;10.70;99.90
21823;DHT22;11074;48.596;9.238;2022-11-14T15:45:39;10.60;99.90
21823;DHT22;11074;48.596;9.238;2022-11-14T15:48:17;10.50;99.90
21823;DHT22;11074;48.596;9.238;2022-11-14T15:50:48;10.50;99.90
21823;DHT22;11074;48.596;9.238;2022-11-14T15:53:26;10.50;99.90
21823;DHT22;11074;48.596;9.238;2022-11-14T15:55:54;10.30;99.90
21823;DHT22;11074;48.596;9.238;2022-11-14T15:58:20;10.30;99.90
21823;DHT22;11074;48.596;9.238;2022-11-14T16:00:49;10.20;99.90
21823;DHT22;11074;48.596;9.238;2022-11-14T16:03:19;10.10;99.90
21823;DHT22;11074;48.596;9.238;2022-11-14T16:05:47;10.00;99.90
21823;DHT22;11074;48.596;9.238;2022-11-14T16:08:13;9.90;99.90
21823;DHT22;11074;48.596;9.238;2022-11-14T16:10:39;9.90;99.90
21823;DHT22;11074;48.596;9.238;2022-11-14T16:13:05;9.80;99.90
21823;DHT22;11074;48.596;9.238;2022-11-14T16:15:31;9.80;99.90
21823;DHT22;11074;48.596;9.238;2022-11-14T16:17:57;9.70;99.90
21823;DHT22;11074;48.596;9.238;2022-11-14T16:20:25;9.70;99.90
21823;DHT22;11074;48.596;9.238;2022-11-14T16:22:52;9.60;99.90
21823;DHT22;11074;48.596;9.238;2022-11-14T16:25:28;9.60;99.90
21823;DHT22;11074;48.596;9.238;2022-11-14T16:27:55;9.50;99.90
21823;DHT22;11074;48.596;9.238;2022-11-14T16:30:22;9.50;99.90
21823;DHT22;11074;48.596;9.238;2022-11-14T16:32:50;9.60;99.90
21823;DHT22;11074;48.596;9.238;2022-11-14T16:35:17;9.50;99.90
21823;DHT22;11074;48.596;9.238;2022-11-14T16:37:45;9.40;99.90
21823;DHT22;11074;48.596;9.238;2022-11-14T16:40:14;9.40;99.90
21823;DHT22;11074;48.596;9.238;2022-11-14T16:42:45;9.40;99.90
21823;DHT22;11074;48.596;9.238;2022-11-14T16:45:12;9.40;99.90
21823;DHT22;11074;48.596;9.238;2022-11-14T16:47:38;9.30;99.90
21823;DHT22;11074;48.596;9.238;2022-11-14T16:50:04;9.30;99.90
21823;DHT22;11074;48.596;9.238;2022-11-14T16:52:30;9.30;99.90
21823;DHT22;11074;48.596;9.238;2022-11-14T16:54:56;9.20;99.90
21823;DHT22;11074;48.596;9.238;2022-11-14T16:57:22;9.10;99.90
21823;DHT22;11074;48.596;9.238;2022-11-14T16:59:49;9.10;99.90
21823;DHT22;11074;48.596;9.238;2022-11-14T17:02:17;9.00;99.90
21823;DHT22;11074;48.596;9.238;2022-11-14T17:04:43;9.00;99.90
21823;DHT22;11074;48.596;9.238;2022-11-14T17:07:13;9.00;99.90
21823;DHT22;11074;48.596;9.238;2022-11-14T17:09:39;9.00;99.90
21823;DHT22;11074;48.596;9.238;2022-11-14T17:12:05;8.90;99.90
21823;DHT22;11074;48.596;9.238;2022-11-14T17:14:31;8.90;99.90
21823;DHT22;11074;48.596;9.238;2022-11-14T17:16:57;8.90;99.90
21823;DHT22;11074;48.596;9.238;2022-11-14T17:19:23;8.90;99.90
21823;DHT22;11074;48.596;9.238;2022-11-14T17:21:49;8.80;99.90
21823;DHT22;11074;48.596;9.238;2022-11-14T17:24:14;8.90;99.90
21823;DHT22;11074;48.596;9.238;2022-11-14T17:26:40;8.80;99.90
21823;DHT22;11074;48.596;9.238;2022-11-14T17:29:07;8.80;99.90
21823;DHT22;11074;48.596;9.238;2022-11-14T17:31:33;8.80;99.90
21823;DHT22;11074;48.596;9.238;2022-11-14T17:33:59;8.80;99.90
21823;DHT22;11074;48.596;9.238;2022-11-14T17:36:27;8.80;99.90
21823;DHT22;11074;48.596;9.238;2022-11-14T17:38:55;8.80;99.90
21823;DHT22;11074;48.596;9.238;2022-11-14T17:41:21;8.70;99.90
21823;DHT22;11074;48.596;9.238;2022-11-14T17:43:51;8.70;99.90
21823;DHT22;11074;48.596;9.238;2022-11-14T17:46:26;8.70;99.90
21823;DHT22;11074;48.596;9.238;2022-11-14T17:48:52;8.70;99.90
21823;DHT22;11074;48.596;9.238;2022-11-14T17:51:18;8.70;99.90
21823;DHT22;11074;48.596;9.238;2022-11-14T17:53:44;8.70;99.90
21823;DHT22;11074;48.596;9.238;2022-11-14T17:56:14;8.70;99.90
21823;DHT22;11074;48.596;9.238;2022-11-14T17:58:43;8.70;99.90
21823;DHT22;11074;48.596;9.238;2022-11-14T18:01:14;8.70;99.90
21823;DHT22;11074;48.596;9.238;2022-11-14T18:03:42;8.70;99.90
21823;DHT22;11074;48.596;9.238;2022-11-14T18:06:13;8.70;99.90
21823;DHT22;11074;48.596;9.238;2022-11-14T18:08:40;8.70;99.90
21823;DHT22;11074;48.596;9.238;2022-11-14T18:11:08;8.60;99.90
21823;DHT22;11074;48.596;9.238;2022-11-14T18:13:36;8.60;99.90
21823;DHT22;11074;48.596;9.238;2022-11-14T18:16:04;8.60;99.90